Eastman, Georgia
Current Conditions -  °F | °C
As of 1:55 AM on Monday 24 Nov 2014 (Local Time) from KEZM Reporting Station
Overcast Overcast  
Wind Chill: 66°   Ceiling: 800
Heat Index: 66°   Visibility: 10mi
Dew Point: 66°   Wind: 5mph
Humidity: 100%   Direction: 210°SSW
Pressure: 29.84"   Gusts: NA
Location:  32.2°N, 83.18°W
Report Text: KEZM 240655Z AUTO 21004KT 10SM OVC008 19/19 A2984 RMK AO2 T01900190
Loading
Personal Weather Stations






























Interactive Weather Map New forecast layout! Learn more

10-Day Weather Forecast

Advertisements
Track Severe Weather on mobile